createdAt,value
2023-03-12T00:02:21.705Z,6.20
2023-03-12T00:04:48.372Z,8.70
2023-03-12T00:07:15.097Z,9.57
2023-03-12T00:09:41.917Z,9.17
2023-03-12T00:12:08.838Z,7.57
2023-03-12T00:14:36.328Z,7.40
2023-03-12T00:17:03.159Z,8.83
2023-03-12T00:19:29.927Z,10.67
2023-03-12T00:21:56.762Z,9.60
2023-03-12T00:24:23.475Z,8.47
2023-03-12T00:26:50.172Z,10.37
2023-03-12T00:29:16.831Z,8.37
2023-03-12T00:31:43.571Z,9.20
2023-03-12T00:34:10.823Z,8.73
2023-03-12T00:36:38.203Z,10.40
2023-03-12T00:39:04.875Z,8.93
2023-03-12T00:41:31.559Z,9.83
2023-03-12T00:43:58.252Z,7.97
2023-03-12T00:46:25.242Z,8.23
2023-03-12T00:48:52.170Z,10.17
2023-03-12T00:51:19.026Z,10.53
2023-03-12T00:53:45.838Z,8.03
2023-03-12T00:56:12.800Z,11.60
2023-03-12T00:58:39.586Z,11.03
2023-03-12T01:01:06.392Z,11.97
2023-03-12T01:03:33.480Z,9.97
2023-03-12T01:06:00.246Z,8.50
2023-03-12T01:08:27.083Z,9.97
2023-03-12T01:10:53.937Z,8.40
2023-03-12T01:13:21.060Z,8.33
2023-03-12T01:15:47.817Z,11.33
2023-03-12T01:18:14.589Z,10.13
2023-03-12T01:20:41.378Z,9.17
2023-03-12T01:23:08.571Z,9.67
2023-03-12T01:25:36.388Z,10.80
2023-03-12T01:28:03.738Z,11.73
2023-03-12T01:30:31.294Z,9.03
2023-03-12T01:32:58.421Z,8.30
2023-03-12T01:35:25.475Z,9.80
2023-03-12T01:37:53.132Z,10.67
2023-03-12T01:40:25.597Z,8.70
2023-03-12T01:42:57.363Z,10.40
2023-03-12T01:45:58.314Z,8.37
2023-03-12T01:48:26.081Z,7.53
2023-03-12T01:50:52.838Z,13.43
2023-03-12T01:53:19.627Z,10.13
2023-03-12T01:55:46.398Z,9.93
2023-03-12T01:58:13.378Z,9.77
2023-03-12T02:00:40.165Z,9.33
2023-03-12T02:03:08.884Z,9.87
2023-03-12T02:06:00.606Z,10.17
2023-03-12T02:08:27.684Z,8.27
2023-03-12T02:10:54.424Z,11.67
2023-03-12T02:13:21.298Z,9.73
2023-03-12T02:15:48.083Z,9.93
2023-03-12T02:18:19.521Z,8.03
2023-03-12T02:21:12.257Z,10.83
2023-03-12T02:23:47.944Z,8.30
2023-03-12T02:26:15.597Z,9.67
2023-03-12T02:28:44.306Z,10.77
2023-03-12T02:31:15.840Z,10.67
2023-03-12T02:33:42.619Z,10.07
2023-03-12T02:36:10.086Z,12.27
2023-03-12T02:38:38.807Z,11.77
2023-03-12T02:41:25.675Z,11.30
2023-03-12T02:44:10.051Z,8.63
2023-03-12T02:46:41.971Z,8.80
2023-03-12T02:49:09.535Z,10.97
2023-03-12T02:51:36.284Z,10.40
2023-03-12T02:54:02.926Z,10.60
2023-03-12T02:56:30.807Z,14.13
2023-03-12T02:58:57.625Z,12.80
2023-03-12T03:01:24.322Z,10.07
2023-03-12T03:03:51.212Z,11.07
2023-03-12T03:06:18.623Z,10.93
2023-03-12T03:08:45.351Z,11.57
2023-03-12T03:11:12.768Z,11.30
2023-03-12T03:13:39.841Z,9.77
2023-03-12T03:16:07.010Z,11.23
2023-03-12T03:18:33.862Z,12.43
2023-03-12T03:21:08.999Z,13.30
2023-03-12T03:23:36.223Z,10.43
2023-03-12T03:26:03.311Z,15.43
2023-03-12T03:28:30.981Z,11.97
2023-03-12T03:31:01.424Z,12.93
2023-03-12T03:33:29.945Z,11.00
2023-03-12T03:35:59.562Z,11.77
2023-03-12T03:38:28.179Z,11.90
2023-03-12T03:40:55.433Z,13.30
2023-03-12T03:43:22.299Z,11.93
2023-03-12T03:45:49.375Z,10.50
2023-03-12T03:48:16.626Z,12.33
2023-03-12T03:50:43.642Z,9.87
2023-03-12T03:53:10.384Z,10.23
2023-03-12T03:55:38.515Z,10.07
2023-03-12T03:58:05.254Z,9.80
2023-03-12T04:00:32.897Z,9.40
2023-03-12T04:02:59.899Z,10.37
2023-03-12T04:05:26.806Z,10.03
2023-03-12T04:07:54.926Z,9.67
2023-03-12T04:10:24.184Z,11.40
2023-03-12T04:12:51.352Z,12.37
2023-03-12T04:15:18.825Z,13.30
2023-03-12T04:17:46.001Z,10.33
2023-03-12T04:20:13.524Z,14.23
2023-03-12T04:22:40.696Z,9.07
2023-03-12T04:25:08.266Z,7.93
2023-03-12T04:27:35.336Z,9.47
2023-03-12T04:30:02.289Z,10.40
2023-03-12T04:32:29.018Z,9.77
2023-03-12T04:34:55.832Z,8.20
2023-03-12T04:37:22.505Z,10.37
2023-03-12T04:39:49.249Z,10.47
2023-03-12T04:42:15.949Z,10.30
2023-03-12T04:44:42.692Z,11.67
2023-03-12T04:47:09.484Z,11.30
2023-03-12T04:49:38.728Z,11.67
2023-03-12T04:52:05.733Z,10.20
2023-03-12T04:54:33.249Z,10.40
2023-03-12T04:56:59.987Z,10.70
2023-03-12T04:59:26.849Z,10.73
2023-03-12T05:01:53.514Z,9.43
2023-03-12T05:04:20.285Z,12.70
2023-03-12T05:06:46.973Z,12.63
2023-03-12T05:09:13.650Z,11.23
2023-03-12T05:11:40.369Z,12.40
2023-03-12T05:14:07.073Z,11.23
2023-03-12T05:16:33.805Z,10.57
2023-03-12T05:19:00.541Z,10.67
2023-03-12T05:21:27.285Z,12.97
2023-03-12T05:23:54.075Z,9.20
2023-03-12T05:26:23.360Z,11.30
2023-03-12T05:28:50.897Z,9.87
2023-03-12T05:31:18.344Z,12.63
2023-03-12T05:33:45.529Z,10.10
2023-03-12T05:36:12.794Z,12.27
2023-03-12T05:38:40.328Z,11.20
2023-03-12T05:41:07.001Z,10.57
2023-03-12T05:43:34.519Z,9.73
2023-03-12T05:46:04.005Z,9.20
2023-03-12T05:48:31.524Z,10.23
2023-03-12T05:50:58.405Z,11.40
2023-03-12T05:53:25.094Z,11.93
2023-03-12T05:55:51.728Z,11.13
2023-03-12T05:58:19.075Z,9.10
2023-03-12T06:00:46.109Z,7.93
2023-03-12T06:03:12.899Z,10.23
2023-03-12T06:05:39.742Z,8.73
2023-03-12T06:08:06.756Z,10.37
2023-03-12T06:10:33.713Z,10.17
2023-03-12T06:13:00.460Z,8.67
2023-03-12T06:15:27.109Z,11.87
2023-03-12T06:17:53.787Z,9.53
2023-03-12T06:20:20.541Z,12.37
2023-03-12T06:22:47.273Z,13.13
2023-03-12T06:25:13.993Z,10.30
2023-03-12T06:27:41.178Z,10.50
2023-03-12T06:30:08.828Z,12.43
2023-03-12T06:32:35.766Z,9.80
2023-03-12T06:35:04.527Z,12.13
2023-03-12T06:37:31.288Z,9.67
2023-03-12T06:39:58.053Z,9.33
2023-03-12T06:42:26.632Z,8.80
2023-03-12T06:44:53.832Z,8.73
2023-03-12T06:47:20.684Z,8.00
2023-03-12T06:49:47.372Z,7.90
2023-03-12T06:52:14.072Z,7.83
2023-03-12T06:54:40.871Z,9.23
2023-03-12T06:57:07.792Z,5.30
2023-03-12T06:59:35.079Z,8.50
2023-03-12T07:02:02.168Z,5.53
2023-03-12T07:04:28.921Z,5.90
2023-03-12T07:06:55.563Z,4.67
2023-03-12T07:09:23.069Z,5.63
2023-03-12T07:11:49.791Z,5.57
2023-03-12T07:14:16.472Z,10.33
2023-03-12T07:16:43.621Z,5.77
2023-03-12T07:19:10.338Z,7.23
2023-03-12T07:21:37.090Z,6.30
2023-03-12T07:24:07.160Z,6.63
2023-03-12T07:26:35.583Z,6.60
2023-03-12T07:29:03.976Z,7.40
2023-03-12T07:31:31.019Z,8.80
2023-03-12T07:33:57.845Z,5.80
2023-03-12T07:36:24.889Z,6.47
2023-03-12T07:38:51.556Z,6.53
2023-03-12T07:41:18.332Z,8.00
2023-03-12T07:43:45.116Z,7.40
2023-03-12T07:46:11.894Z,11.73
2023-03-12T07:48:39.534Z,5.83
2023-03-12T07:51:07.497Z,5.60
2023-03-12T07:53:34.260Z,5.90
2023-03-12T07:56:01.186Z,9.50
2023-03-12T07:58:28.003Z,6.77
2023-03-12T08:00:56.595Z,8.27
2023-03-12T08:03:23.778Z,5.87
2023-03-12T08:06:02.112Z,6.20
2023-03-12T08:08:29.623Z,6.33
2023-03-12T08:10:56.770Z,4.40
2023-03-12T08:13:24.494Z,6.63
2023-03-12T08:15:52.908Z,6.60
2023-03-12T08:18:20.397Z,7.03
2023-03-12T08:20:51.265Z,7.03
2023-03-12T08:23:18.320Z,6.63
2023-03-12T08:25:48.846Z,9.47
2023-03-12T08:28:16.241Z,9.90
2023-03-12T08:30:51.389Z,7.67
2023-03-12T08:33:18.446Z,7.40
2023-03-12T08:35:45.718Z,4.63
2023-03-12T08:38:12.545Z,5.33
2023-03-12T08:40:39.326Z,7.07
2023-03-12T08:43:07.666Z,6.20
2023-03-12T08:45:36.464Z,3.57
2023-03-12T08:48:04.525Z,6.00
2023-03-12T08:50:32.231Z,6.37
2023-03-12T08:53:00.495Z,4.70
2023-03-12T08:55:30.023Z,6.57
2023-03-12T08:57:56.882Z,4.27
2023-03-12T09:00:23.807Z,3.70
2023-03-12T09:02:52.166Z,4.07
2023-03-12T09:05:25.063Z,6.37
2023-03-12T09:07:51.739Z,8.03
2023-03-12T09:10:18.502Z,5.67
2023-03-12T09:12:45.332Z,7.13
2023-03-12T09:15:12.022Z,4.97
2023-03-12T09:17:39.106Z,5.03
2023-03-12T09:20:08.958Z,7.00
2023-03-12T09:22:37.391Z,9.30
2023-03-12T09:25:05.236Z,4.93
2023-03-12T09:27:36.585Z,5.23
2023-03-12T09:30:03.695Z,4.03
2023-03-12T09:32:30.451Z,6.33
2023-03-12T09:34:57.400Z,8.77
2023-03-12T09:37:24.585Z,5.83
2023-03-12T09:39:52.658Z,4.40
2023-03-12T09:42:33.372Z,5.97
2023-03-12T09:45:03.292Z,4.83
2023-03-12T09:47:34.426Z,5.07
2023-03-12T09:50:32.905Z,6.50
2023-03-12T09:53:03.656Z,4.53
2023-03-12T09:55:38.563Z,5.20
2023-03-12T09:58:14.393Z,4.43
2023-03-12T10:00:41.138Z,5.10
2023-03-12T10:03:29.939Z,4.60
2023-03-12T10:06:08.894Z,4.87
2023-03-12T10:09:10.992Z,4.23
2023-03-12T10:11:55.626Z,4.67
2023-03-12T10:14:36.317Z,8.20
2023-03-12T10:17:40.125Z,6.60
2023-03-12T10:20:28.134Z,5.63
2023-03-12T10:23:19.042Z,6.03
2023-03-12T10:26:04.445Z,5.07
2023-03-12T10:28:49.302Z,11.83
2023-03-12T10:31:23.978Z,4.40
2023-03-12T10:33:56.147Z,8.20
2023-03-12T10:36:41.594Z,4.20
2023-03-12T10:39:16.274Z,5.03
2023-03-12T10:41:44.935Z,5.97
2023-03-12T10:44:18.551Z,5.37
2023-03-12T10:47:28.270Z,8.27
2023-03-12T10:49:54.954Z,6.10
2023-03-12T10:52:23.267Z,5.20
2023-03-12T10:54:52.870Z,6.67
2023-03-12T10:57:21.170Z,6.77
2023-03-12T10:59:48.735Z,6.90
2023-03-12T11:02:35.384Z,5.90
2023-03-12T11:05:20.589Z,8.70
2023-03-12T11:07:47.456Z,8.43
2023-03-12T11:10:23.323Z,6.67
2023-03-12T11:13:03.098Z,9.20
2023-03-12T11:15:35.845Z,6.80
2023-03-12T11:18:21.433Z,7.83
2023-03-12T11:20:50.304Z,7.37
2023-03-12T11:23:21.375Z,9.87
2023-03-12T11:26:11.364Z,7.90
2023-03-12T11:28:44.448Z,7.63
2023-03-12T11:31:26.707Z,7.53
2023-03-12T11:33:57.710Z,8.07
2023-03-12T11:36:43.459Z,10.50
2023-03-12T11:39:23.741Z,10.97
2023-03-12T11:42:09.101Z,11.43
2023-03-12T11:44:56.982Z,10.20
2023-03-12T11:47:47.930Z,10.33
2023-03-12T11:50:43.109Z,10.73
2023-03-12T11:53:25.016Z,8.67
2023-03-12T11:56:02.179Z,9.60
2023-03-12T11:58:34.817Z,8.90
2023-03-12T12:01:11.551Z,9.17
2023-03-12T12:03:50.304Z,9.47
2023-03-12T12:06:24.946Z,10.57
2023-03-12T12:08:56.653Z,11.30
2023-03-12T12:11:55.823Z,12.07
2023-03-12T12:14:59.476Z,11.90
2023-03-12T12:17:47.351Z,11.23
2023-03-12T12:20:37.978Z,12.50
2023-03-12T12:23:17.331Z,13.97
2023-03-12T12:26:06.006Z,12.47
2023-03-12T12:28:39.043Z,15.13
2023-03-12T12:31:21.939Z,13.23
2023-03-12T12:33:49.556Z,12.63
2023-03-12T12:36:17.933Z,14.70
2023-03-12T12:38:54.164Z,14.63
2023-03-12T12:41:25.148Z,12.53
2023-03-12T12:43:58.108Z,12.83
2023-03-12T12:46:34.455Z,14.27
2023-03-12T12:49:06.892Z,12.03
2023-03-12T12:51:39.414Z,13.23
2023-03-12T12:54:34.060Z,11.27
2023-03-12T12:57:30.062Z,11.67
2023-03-12T12:59:56.728Z,13.57
2023-03-12T13:02:28.130Z,14.13
2023-03-12T13:04:59.157Z,16.73
2023-03-12T13:07:27.876Z,22.97
2023-03-12T13:09:57.011Z,11.97
2023-03-12T13:12:32.899Z,11.60
2023-03-12T13:15:01.654Z,10.87
2023-03-12T13:17:32.345Z,9.67
2023-03-12T13:20:06.410Z,9.90
2023-03-12T13:22:54.968Z,9.63
2023-03-12T13:25:30.510Z,11.40
2023-03-12T13:28:01.156Z,13.00
2023-03-12T13:30:47.407Z,9.80
2023-03-12T13:33:18.337Z,10.67
2023-03-12T13:36:08.984Z,10.00
2023-03-12T13:38:39.442Z,10.63
2023-03-12T13:41:07.619Z,11.07
2023-03-12T13:43:37.367Z,9.73
2023-03-12T13:46:21.593Z,12.10
2023-03-12T13:48:49.627Z,11.40
2023-03-12T13:51:23.934Z,10.20
2023-03-12T13:53:58.078Z,11.27
2023-03-12T13:56:33.395Z,10.30
2023-03-12T13:59:03.961Z,10.30
2023-03-12T14:01:36.499Z,10.53
2023-03-12T14:04:15.024Z,12.00
2023-03-12T14:07:14.455Z,11.73
2023-03-12T14:10:00.548Z,12.03
2023-03-12T14:12:48.952Z,11.50
2023-03-12T14:15:31.873Z,11.50
2023-03-12T14:18:02.930Z,12.03
2023-03-12T14:20:30.591Z,12.80
2023-03-12T14:23:06.379Z,11.37
2023-03-12T14:25:43.630Z,10.33
2023-03-12T14:28:22.054Z,11.17
2023-03-12T14:30:51.719Z,11.20
2023-03-12T14:33:19.775Z,11.47
2023-03-12T14:35:57.537Z,9.63
2023-03-12T14:38:32.949Z,11.13
2023-03-12T14:41:27.812Z,11.77
2023-03-12T14:44:17.734Z,9.93
2023-03-12T14:46:56.714Z,10.67
2023-03-12T14:49:23.520Z,11.97
2023-03-12T14:51:50.288Z,11.10
2023-03-12T14:54:24.054Z,11.57
2023-03-12T14:56:51.056Z,15.47
2023-03-12T14:59:31.377Z,13.90
2023-03-12T15:02:18.940Z,16.43
2023-03-12T15:04:47.338Z,15.53
2023-03-12T15:07:19.177Z,16.17
2023-03-12T15:09:49.955Z,19.80
2023-03-12T15:12:19.691Z,20.87
2023-03-12T15:14:47.611Z,22.93
2023-03-12T15:17:18.534Z,23.07
2023-03-12T15:19:46.858Z,20.73
2023-03-12T15:22:20.814Z,26.37
2023-03-12T15:24:47.939Z,23.93
2023-03-12T15:27:30.193Z,25.20
2023-03-12T15:29:58.632Z,26.03
2023-03-12T15:32:27.084Z,26.03
2023-03-12T15:34:56.536Z,25.73
2023-03-12T15:37:41.360Z,26.77
2023-03-12T15:40:21.540Z,29.70
2023-03-12T15:42:48.871Z,32.07
2023-03-12T15:45:23.287Z,29.20
2023-03-12T15:47:53.397Z,31.97
2023-03-12T15:50:20.029Z,30.80
2023-03-12T15:53:25.634Z,32.80
2023-03-12T15:56:03.919Z,31.57
2023-03-12T15:58:33.556Z,32.00
2023-03-12T16:01:29.618Z,33.13
2023-03-12T16:03:56.468Z,34.53
2023-03-12T16:06:26.833Z,30.83
2023-03-12T16:09:03.778Z,32.93
2023-03-12T16:11:33.362Z,33.87
2023-03-12T16:14:13.900Z,33.47
2023-03-12T16:16:40.975Z,36.20
2023-03-12T16:19:16.134Z,36.20
2023-03-12T16:21:43.767Z,34.40
2023-03-12T16:24:11.280Z,37.57
2023-03-12T16:26:49.282Z,35.80
2023-03-12T16:29:18.175Z,36.40
2023-03-12T16:31:47.795Z,41.43
2023-03-12T16:34:14.447Z,36.13
2023-03-12T16:36:41.236Z,38.70
2023-03-12T16:39:08.031Z,41.60
2023-03-12T16:41:34.953Z,39.90
2023-03-12T16:44:02.335Z,40.07
2023-03-12T16:46:32.388Z,45.90
2023-03-12T16:48:59.671Z,43.37
2023-03-12T16:51:28.431Z,44.57
2023-03-12T16:54:09.240Z,47.17
2023-03-12T16:56:41.162Z,46.23
2023-03-12T16:59:17.657Z,45.63
2023-03-12T17:01:44.395Z,43.70
2023-03-12T17:04:11.344Z,44.67
2023-03-12T17:06:40.510Z,46.80
2023-03-12T17:09:08.563Z,41.60
2023-03-12T17:11:38.020Z,49.00
2023-03-12T17:14:18.970Z,40.40
2023-03-12T17:16:45.724Z,44.57
2023-03-12T17:19:12.427Z,46.20
2023-03-12T17:21:39.913Z,42.20
2023-03-12T17:24:06.968Z,45.13
2023-03-12T17:26:34.079Z,43.40
2023-03-12T17:29:00.829Z,47.23
2023-03-12T17:31:27.571Z,40.90
2023-03-12T17:33:54.268Z,41.83
2023-03-12T17:36:21.170Z,41.53
2023-03-12T17:38:50.660Z,43.03
2023-03-12T17:41:26.146Z,39.93
2023-03-12T17:43:55.004Z,36.47
2023-03-12T17:46:22.238Z,38.37
2023-03-12T17:48:49.061Z,39.83
2023-03-12T17:51:15.774Z,30.37
2023-03-12T17:53:42.480Z,36.37
2023-03-12T17:56:12.480Z,34.13
2023-03-12T17:58:39.536Z,27.27
2023-03-12T18:01:06.261Z,29.33
2023-03-12T18:03:32.999Z,33.10
2023-03-12T18:05:59.706Z,30.80
2023-03-12T18:08:26.439Z,30.17
2023-03-12T18:10:53.162Z,29.50
2023-03-12T18:13:19.884Z,27.40
2023-03-12T18:15:54.498Z,21.97
2023-03-12T18:18:22.054Z,24.73
2023-03-12T18:20:49.265Z,24.87
2023-03-12T18:23:16.134Z,21.07
2023-03-12T18:25:43.600Z,30.30
2023-03-12T18:28:10.280Z,25.13
2023-03-12T18:30:36.964Z,28.93
2023-03-12T18:33:04.004Z,26.70
2023-03-12T18:35:30.959Z,23.70
2023-03-12T18:37:58.163Z,27.67
2023-03-12T18:40:25.309Z,31.07
2023-03-12T18:42:52.106Z,27.70
2023-03-12T18:45:18.946Z,29.83
2023-03-12T18:47:50.264Z,24.73
2023-03-12T18:50:17.557Z,25.00
2023-03-12T18:52:44.467Z,25.00
2023-03-12T18:55:16.142Z,24.43
2023-03-12T18:57:43.261Z,27.77
2023-03-12T19:00:17.774Z,26.57
2023-03-12T19:02:47.834Z,27.53
2023-03-12T19:05:16.533Z,25.27
2023-03-12T19:07:43.685Z,27.33
2023-03-12T19:10:12.037Z,23.37
2023-03-12T19:12:51.645Z,24.63
2023-03-12T19:15:22.476Z,26.80
2023-03-12T19:17:49.532Z,22.50
2023-03-12T19:20:17.029Z,31.33
2023-03-12T19:22:44.182Z,33.23
2023-03-12T19:25:11.120Z,23.30
2023-03-12T19:27:38.480Z,26.17
2023-03-12T19:30:05.974Z,39.53
2023-03-12T19:32:42.442Z,27.13
2023-03-12T19:35:11.721Z,28.50
2023-03-12T19:37:38.834Z,24.03
2023-03-12T19:40:06.459Z,31.33
2023-03-12T19:42:33.197Z,34.57
2023-03-12T19:45:00.155Z,39.03
2023-03-12T19:47:26.960Z,32.03
2023-03-12T19:49:53.812Z,28.80
2023-03-12T19:52:20.530Z,34.10
2023-03-12T19:55:01.531Z,30.83
2023-03-12T19:57:30.873Z,29.07
2023-03-12T19:59:57.614Z,40.30
2023-03-12T20:02:24.448Z,34.70
2023-03-12T20:04:51.221Z,33.80
2023-03-12T20:07:18.528Z,29.40
2023-03-12T20:09:45.250Z,33.53
2023-03-12T20:12:12.162Z,46.67
2023-03-12T20:14:41.342Z,25.37
2023-03-12T20:17:09.176Z,30.80
2023-03-12T20:19:35.899Z,34.23
2023-03-12T20:22:02.534Z,30.13
2023-03-12T20:24:29.166Z,28.87
2023-03-12T20:26:55.831Z,33.53
2023-03-12T20:29:22.855Z,31.73
2023-03-12T20:31:50.534Z,34.37
2023-03-12T20:34:17.334Z,27.00
2023-03-12T20:36:43.997Z,26.73
2023-03-12T20:39:10.895Z,27.63
2023-03-12T20:41:37.575Z,29.13
2023-03-12T20:44:04.387Z,31.97
2023-03-12T20:46:31.111Z,34.10
2023-03-12T20:48:57.813Z,34.97
2023-03-12T20:51:24.930Z,31.23
2023-03-12T20:53:51.736Z,33.77
2023-03-12T20:56:18.380Z,34.90
2023-03-12T20:58:45.014Z,32.73
2023-03-12T21:01:11.766Z,38.63
2023-03-12T21:03:38.550Z,35.03
2023-03-12T21:06:05.476Z,42.10
2023-03-12T21:08:33.020Z,39.20
2023-03-12T21:10:59.874Z,41.87
2023-03-12T21:13:26.880Z,39.10
2023-03-12T21:15:53.596Z,38.70
2023-03-12T21:18:20.699Z,33.07
2023-03-12T21:20:47.873Z,34.40
2023-03-12T21:23:14.701Z,30.97
2023-03-12T21:25:41.648Z,34.50
2023-03-12T21:28:10.237Z,36.07
2023-03-12T21:30:37.554Z,41.13
2023-03-12T21:33:04.548Z,37.77
2023-03-12T21:35:31.363Z,35.37
2023-03-12T21:37:59.020Z,36.27
2023-03-12T21:40:25.819Z,35.27
2023-03-12T21:42:52.538Z,33.43
2023-03-12T21:45:19.454Z,32.33
2023-03-12T21:47:46.132Z,29.80
2023-03-12T21:50:12.793Z,33.17
2023-03-12T21:52:43.141Z,32.83
2023-03-12T21:55:10.743Z,29.60
2023-03-12T21:57:37.480Z,31.70
2023-03-12T22:00:05.922Z,27.83
2023-03-12T22:02:32.624Z,26.43
2023-03-12T22:05:00.854Z,25.10
2023-03-12T22:07:30.089Z,31.40
2023-03-12T22:09:57.299Z,22.80
2023-03-12T22:12:24.084Z,30.77
2023-03-12T22:14:50.917Z,26.47
2023-03-12T22:17:18.108Z,29.80
2023-03-12T22:19:44.854Z,26.17
2023-03-12T22:22:11.847Z,29.50
2023-03-12T22:24:38.604Z,25.67
2023-03-12T22:27:07.538Z,25.63
2023-03-12T22:29:34.906Z,33.43
2023-03-12T22:32:02.065Z,24.53
2023-03-12T22:34:29.743Z,26.70
2023-03-12T22:36:56.562Z,26.70
2023-03-12T22:39:23.366Z,30.37
2023-03-12T22:41:53.766Z,32.20
2023-03-12T22:44:20.462Z,29.13
2023-03-12T22:46:47.130Z,30.73
2023-03-12T22:49:15.152Z,21.57
2023-03-12T22:51:42.062Z,27.73
2023-03-12T22:54:08.852Z,25.53
2023-03-12T22:56:35.686Z,25.73
2023-03-12T22:59:02.580Z,27.23
2023-03-12T23:01:29.469Z,27.27
2023-03-12T23:03:56.433Z,26.47
2023-03-12T23:06:27.941Z,25.97
2023-03-12T23:08:57.655Z,23.47
2023-03-12T23:11:28.141Z,32.43
2023-03-12T23:13:54.848Z,32.03
2023-03-12T23:16:24.283Z,28.03
2023-03-12T23:18:51.377Z,24.93
2023-03-12T23:21:21.536Z,30.30
2023-03-12T23:23:49.595Z,25.90
2023-03-12T23:26:19.282Z,28.07
2023-03-12T23:28:47.446Z,25.10
2023-03-12T23:31:16.125Z,29.73
2023-03-12T23:33:43.545Z,29.10
2023-03-12T23:36:16.646Z,23.50
2023-03-12T23:38:43.755Z,38.50
2023-03-12T23:41:25.413Z,23.23
2023-03-12T23:43:52.587Z,25.33
2023-03-12T23:46:20.276Z,22.30
2023-03-12T23:48:47.472Z,31.10
2023-03-12T23:51:16.856Z,26.63
2023-03-12T23:53:46.194Z,23.60
2023-03-12T23:56:19.278Z,33.30
2023-03-12T23:58:46.771Z,21.37
